Time;durP1;ratioP1;P1;durP2;ratioP2;P2;SDS_P1;SDS_P2;PMS_P1;PMS_P2;Temp;Humidity;BMP_temperature;BMP_pressure;BME280_temperature;BME280_humidity;BME280_pressure;Samples;Min_cycle;Max_cycle;Signal;HPM_P1;HPM_P2
2022/05/11 00:01:16;;;;;;;27.75;3.50;;;31.70;17.20;;;;;;5014697;28;20527;-64
2022/05/11 00:03:42;;;;;;;20.60;3.83;;;31.40;18.40;;;;;;5013102;28;20059;-68
2022/05/11 00:06:09;;;;;;;25.13;4.97;;;31.10;33.10;;;;;;5012671;28;20079;-68
2022/05/11 00:08:36;;;;;;;26.98;3.83;;;31.10;18.90;;;;;;5012167;28;20421;-66
2022/05/11 00:11:04;;;;;;;80.05;7.53;;;31.00;19.40;;;;;;5030904;28;20156;-68
2022/05/11 00:13:32;;;;;;;16.08;2.70;;;30.90;18.80;;;;;;5013221;28;20040;-66
2022/05/11 00:15:58;;;;;;;31.27;7.82;;;30.80;19.00;;;;;;5016257;28;20049;-66
2022/05/11 00:18:25;;;;;;;31.50;3.25;;;30.80;18.50;;;;;;5014309;28;20053;-64
2022/05/11 00:20:51;;;;;;;20.13;4.40;;;30.50;19.00;;;;;;5014527;28;20145;-68
2022/05/11 00:23:18;;;;;;;18.65;2.80;;;30.50;19.10;;;;;;5016396;28;20046;-66
2022/05/11 00:25:47;;;;;;;25.55;2.60;;;30.70;18.90;;;;;;5012939;28;20517;-68
2022/05/11 00:28:14;;;;;;;10.13;4.57;;;30.60;18.30;;;;;;5018740;28;20058;-67
2022/05/11 00:30:41;;;;;;;19.10;3.65;;;30.40;18.30;;;;;;5012819;28;20060;-68
2022/05/11 00:33:10;;;;;;;16.45;4.47;;;30.40;18.60;;;;;;5012469;28;20050;-66
2022/05/11 00:35:37;;;;;;;28.08;3.85;;;30.30;18.90;;;;;;5012742;28;20061;-65
2022/05/11 00:38:04;;;;;;;32.17;4.47;;;30.10;19.00;;;;;;5011008;28;20069;-65
2022/05/11 00:40:32;;;;;;;12.80;2.15;;;29.90;18.80;;;;;;5007025;28;20067;-66
2022/05/11 00:42:58;;;;;;;20.85;4.85;;;29.80;19.40;;;;;;5015082;28;20077;-65
2022/05/11 00:45:25;;;;;;;15.75;2.85;;;29.80;19.60;;;;;;5010410;28;20583;-66
2022/05/11 00:47:57;;;;;;;30.98;3.00;;;29.80;19.40;;;;;;5012941;28;20569;-68
2022/05/11 00:50:28;;;;;;;15.82;1.77;;;29.60;18.90;;;;;;5011994;28;20075;-66
2022/05/11 00:53:12;;;;;;;15.85;2.85;;;29.40;19.70;;;;;;5014059;28;20550;-68
2022/05/11 00:55:45;;;;;;;26.45;2.38;;;29.40;19.70;;;;;;5012538;28;20063;-66
2022/05/11 00:58:14;;;;;;;18.05;2.67;;;29.40;20.20;;;;;;5013781;28;20064;-66
2022/05/11 01:00:44;;;;;;;30.55;2.97;;;29.40;20.30;;;;;;5012476;28;20061;-65
2022/05/11 01:03:27;;;;;;;12.57;2.95;;;29.00;20.10;;;;;;5014015;28;20157;-65
2022/05/11 01:05:54;;;;;;;23.13;3.03;;;28.80;20.10;;;;;;5009642;28;20065;-66
2022/05/11 01:08:21;;;;;;;25.55;4.40;;;28.60;20.60;;;;;;5013447;28;20179;-66
2022/05/11 01:10:50;;;;;;;19.65;2.58;;;28.70;20.50;;;;;;5030330;28;20402;-64
2022/05/11 01:13:18;;;;;;;18.25;4.05;;;28.50;20.70;;;;;;5011306;28;20166;-62
2022/05/11 01:15:52;;;;;;;23.80;3.40;;;28.40;20.60;;;;;;5012025;28;20435;-64
2022/05/11 01:18:20;;;;;;;17.73;4.30;;;28.30;20.80;;;;;;5011413;28;20149;-64
2022/05/11 01:20:46;;;;;;;22.20;3.38;;;28.20;20.70;;;;;;5002656;28;20048;-67
2022/05/11 01:23:32;;;;;;;13.68;3.60;;;28.10;20.50;;;;;;5016287;28;20071;-66
2022/05/11 01:26:00;;;;;;;18.33;3.23;;;28.00;20.90;;;;;;5014738;28;20521;-65
2022/05/11 01:28:27;;;;;;;21.23;3.28;;;27.80;21.30;;;;;;5016507;28;20066;-65
2022/05/11 01:31:05;;;;;;;24.00;3.92;;;27.70;21.70;;;;;;5013825;28;20131;-65
2022/05/11 01:33:32;;;;;;;29.77;4.50;;;27.50;21.80;;;;;;5042093;28;20066;-65
2022/05/11 01:36:27;;;;;;;35.33;4.40;;;27.30;21.90;;;;;;5018250;28;20078;-65
2022/05/11 01:38:57;;;;;;;38.78;4.57;;;27.20;22.30;;;;;;5023790;28;20063;-64
2022/05/11 01:41:35;;;;;;;20.75;4.60;;;27.10;22.30;;;;;;5019008;28;20431;-66
2022/05/11 01:44:05;;;;;;;59.75;4.95;;;27.00;22.60;;;;;;5024197;28;20892;-64
2022/05/11 01:46:32;;;;;;;30.40;4.80;;;26.90;22.80;;;;;;5026230;28;20087;-65
2022/05/11 01:48:59;;;;;;;41.83;4.75;;;26.90;22.80;;;;;;5024550;28;20091;-66
2022/05/11 01:51:26;;;;;;;31.73;5.22;;;26.70;22.90;;;;;;5025098;28;20064;-66
2022/05/11 01:53:52;;;;;;;43.92;5.05;;;26.50;23.10;;;;;;5022538;28;20597;-65
2022/05/11 01:56:22;;;;;;;33.97;4.50;;;26.60;23.20;;;;;;5013931;28;20079;-65
2022/05/11 01:58:50;;;;;;;37.75;5.13;;;26.50;23.30;;;;;;5023625;28;20604;-67
2022/05/11 02:01:20;;;;;;;32.70;4.72;;;26.30;23.40;;;;;;5018391;28;20564;-70
2022/05/11 02:03:47;;;;;;;37.25;4.75;;;26.20;23.50;;;;;;5024418;28;20090;-65
2022/05/11 02:08:58;;;;;;;45.13;5.63;;;26.00;23.90;;;;;;5012694;28;20091;-67
2022/05/11 02:11:26;;;;;;;39.45;5.32;;;25.80;24.40;;;;;;5015961;28;20122;-65
2022/05/11 02:13:53;;;;;;;92.20;8.48;;;25.70;24.70;;;;;;5014695;28;20065;-67
2022/05/11 02:16:19;;;;;;;63.83;6.30;;;25.60;25.00;;;;;;5019144;28;20518;-67
2022/05/11 02:18:46;;;;;;;42.25;5.38;;;25.50;25.10;;;;;;5023016;28;20074;-65
2022/05/11 02:21:13;;;;;;;64.00;6.45;;;25.40;25.10;;;;;;5015300;28;20091;-65
2022/05/11 02:23:39;;;;;;;52.45;6.15;;;25.40;25.30;;;;;;5015937;28;20073;-65
2022/05/11 02:26:09;;;;;;;47.97;5.45;;;25.30;25.50;;;;;;4998511;28;20080;-67
2022/05/11 02:28:36;;;;;;;104.13;7.75;;;25.30;25.50;;;;;;5016234;28;20073;-65
2022/05/11 02:31:02;;;;;;;41.50;6.32;;;25.20;25.20;;;;;;5015092;28;20549;-66
2022/05/11 02:33:28;;;;;;;70.15;6.18;;;25.20;25.40;;;;;;5019042;28;20078;-75
2022/05/11 02:35:55;;;;;;;50.70;6.05;;;25.10;25.50;;;;;;5020204;28;20104;-66
2022/05/11 02:38:35;;;;;;;44.40;5.35;;;24.90;25.50;;;;;;5019794;28;20547;-65
2022/05/11 02:41:02;;;;;;;60.88;8.02;;;24.90;25.50;;;;;;5018394;28;20115;-65
2022/05/11 02:43:29;;;;;;;84.20;8.60;;;24.80;25.90;;;;;;5024271;28;20107;-66
2022/05/11 02:45:55;;;;;;;102.13;9.80;;;24.80;25.40;;;;;;5019586;28;20160;-67
2022/05/11 02:48:25;;;;;;;77.32;8.38;;;24.70;25.40;;;;;;5012989;28;20096;-67
2022/05/11 02:50:54;;;;;;;71.95;9.32;;;24.70;25.50;;;;;;5016740;28;20481;-67
2022/05/11 02:53:22;;;;;;;88.57;10.48;;;24.60;25.40;;;;;;5015992;28;20105;-66
2022/05/11 02:55:50;;;;;;;110.05;10.88;;;24.50;25.40;;;;;;5020716;28;20097;-66
2022/05/11 02:58:20;;;;;;;97.18;10.73;;;24.30;25.30;;;;;;5018520;28;20097;-67
2022/05/11 03:00:49;;;;;;;101.72;10.55;;;24.30;25.20;;;;;;5017004;28;20089;-66
2022/05/11 03:03:17;;;;;;;95.22;10.02;;;24.20;24.90;;;;;;5016333;28;20210;-67
2022/05/11 03:05:44;;;;;;;88.25;9.70;;;24.30;24.70;;;;;;5020114;28;20065;-65
2022/05/11 03:08:11;;;;;;;138.90;12.20;;;24.20;24.20;;;;;;5017201;28;20093;-68
2022/05/11 03:10:39;;;;;;;113.00;12.40;;;24.10;24.00;;;;;;5018617;28;20442;-68
2022/05/11 03:13:07;;;;;;;101.18;9.77;;;24.00;23.90;;;;;;5024899;28;20065;-64
2022/05/11 03:15:34;;;;;;;119.35;13.75;;;23.90;23.70;;;;;;5014959;28;20069;-69
2022/05/11 03:18:00;;;;;;;112.40;10.00;;;23.90;23.60;;;;;;5023781;28;20076;-68
2022/05/11 03:20:27;;;;;;;118.88;12.52;;;23.90;23.60;;;;;;5015067;28;20158;-66
2022/05/11 03:22:55;;;;;;;137.77;11.05;;;23.90;23.60;;;;;;5013455;28;20071;-64
2022/05/11 03:25:23;;;;;;;151.55;13.52;;;23.80;23.40;;;;;;5014153;28;20455;-64
2022/05/11 03:27:50;;;;;;;139.77;12.32;;;23.70;23.40;;;;;;5012801;28;20672;-66
2022/05/11 03:30:17;;;;;;;145.52;11.75;;;23.60;24.00;;;;;;5017485;28;20069;-68
2022/05/11 03:35:28;;;;;;;168.68;12.27;;;23.60;23.50;;;;;;5017880;28;20428;-67
2022/05/11 03:37:55;;;;;;;116.63;10.25;;;23.50;23.40;;;;;;5011810;28;20196;-67
2022/05/11 03:40:22;;;;;;;123.03;10.77;;;23.50;23.40;;;;;;5017907;28;20073;-67
2022/05/11 03:42:48;;;;;;;124.38;12.45;;;23.50;23.50;;;;;;5017043;28;20076;-65
2022/05/11 03:45:20;;;;;;;98.90;9.65;;;23.40;23.60;;;;;;5018169;28;20113;-65
2022/05/11 03:47:47;;;;;;;102.10;10.10;;;23.40;23.60;;;;;;5015851;28;20089;-64
2022/05/11 03:50:19;;;;;;;165.27;11.40;;;23.40;23.70;;;;;;5015186;28;20485;-66
2022/05/11 03:52:46;;;;;;;96.60;9.85;;;23.20;23.90;;;;;;5012037;28;20204;-65
2022/05/11 03:55:13;;;;;;;57.65;6.75;;;23.20;24.00;;;;;;5020583;28;20072;-64
2022/05/11 03:57:40;;;;;;;67.05;7.32;;;23.10;24.00;;;;;;5043532;28;20080;-60
2022/05/11 04:00:12;;;;;;;91.55;6.72;;;23.10;24.20;;;;;;5021029;28;20089;-65
2022/05/11 04:02:39;;;;;;;72.07;6.72;;;23.00;24.40;;;;;;5013733;28;20077;-64
2022/05/11 04:05:07;;;;;;;36.85;4.95;;;22.90;24.50;;;;;;5012754;28;20069;-66
2022/05/11 04:07:33;;;;;;;70.88;7.05;;;22.90;24.70;;;;;;5010220;28;20444;-61
2022/05/11 04:10:00;;;;;;;48.47;5.53;;;22.90;24.90;;;;;;5012357;28;20613;-62
2022/05/11 04:12:29;;;;;;;44.65;5.28;;;22.90;25.00;;;;;;5014335;28;20223;-63
2022/05/11 04:14:57;;;;;;;68.85;6.25;;;22.70;25.20;;;;;;5019993;28;20155;-63
2022/05/11 04:17:24;;;;;;;80.65;5.82;;;22.60;25.40;;;;;;5013922;28;20073;-62
2022/05/11 04:19:51;;;;;;;42.90;5.35;;;22.60;25.70;;;;;;5011427;28;20092;-63
2022/05/11 04:22:17;;;;;;;72.47;5.50;;;22.50;25.80;;;;;;5016555;28;20078;-62
2022/05/11 04:24:44;;;;;;;44.50;5.22;;;22.40;26.20;;;;;;5013987;28;20085;-62
2022/05/11 04:27:11;;;;;;;46.33;3.92;;;22.40;25.90;;;;;;5014731;28;20443;-62
2022/05/11 04:29:38;;;;;;;26.10;3.50;;;22.30;25.90;;;;;;5013081;28;20089;-63
2022/05/11 04:32:05;;;;;;;43.03;3.92;;;22.30;26.10;;;;;;5010756;28;20223;-62
2022/05/11 04:34:32;;;;;;;50.65;5.88;;;22.30;26.10;;;;;;5012955;28;20903;-62
2022/05/11 04:36:58;;;;;;;46.78;5.95;;;22.20;26.30;;;;;;5010489;28;20089;-61
2022/05/11 04:39:24;;;;;;;41.50;5.78;;;22.10;26.50;;;;;;5015368;28;20073;-60
2022/05/11 04:41:51;;;;;;;55.35;6.22;;;22.00;26.60;;;;;;5011850;28;20424;-63
2022/05/11 04:44:17;;;;;;;71.80;5.97;;;22.00;26.70;;;;;;4999759;28;20455;-63
2022/05/11 04:46:44;;;;;;;30.98;4.72;;;22.10;26.40;;;;;;5010566;28;20529;-63
2022/05/11 04:49:16;;;;;;;39.15;4.70;;;22.00;26.20;;;;;;5011253;28;20081;-63
2022/05/11 04:51:43;;;;;;;35.13;4.65;;;22.00;26.10;;;;;;5012567;28;20151;-64
2022/05/11 04:54:11;;;;;;;49.63;5.10;;;22.00;26.30;;;;;;5013127;28;20167;-63
2022/05/11 04:56:38;;;;;;;42.47;5.50;;;21.90;26.60;;;;;;5013193;28;20082;-65
2022/05/11 04:59:08;;;;;;;44.58;5.50;;;21.90;27.00;;;;;;5010891;28;20109;-65
2022/05/11 05:01:36;;;;;;;55.55;6.53;;;21.80;27.20;;;;;;5008067;28;20089;-62
2022/05/11 05:04:03;;;;;;;52.92;7.50;;;21.80;27.50;;;;;;5032662;28;20097;-64
2022/05/11 05:06:34;;;;;;;70.82;7.75;;;21.70;27.80;;;;;;5024226;28;20089;-64
2022/05/11 05:09:05;;;;;;;71.82;7.30;;;21.70;28.00;;;;;;5012487;28;20139;-65
2022/05/11 05:11:33;;;;;;;65.68;6.90;;;21.60;28.30;;;;;;5010051;28;20100;-62
2022/05/11 05:13:59;;;;;;;59.85;7.45;;;21.60;28.40;;;;;;5014337;28;20408;-64
2022/05/11 05:16:26;;;;;;;58.08;6.40;;;21.60;28.80;;;;;;5017624;28;20073;-63
2022/05/11 05:18:53;;;;;;;59.28;7.72;;;21.50;29.40;;;;;;5011408;28;20085;-64
2022/05/11 05:21:19;;;;;;;76.05;7.53;;;21.30;30.20;;;;;;5020503;28;20077;-63
2022/05/11 05:23:46;;;;;;;69.05;8.68;;;21.30;31.50;;;;;;5014927;28;20069;-64
2022/05/11 05:26:12;;;;;;;58.30;8.57;;;21.10;32.50;;;;;;5019724;28;20105;-65
2022/05/11 05:31:27;;;;;;;72.70;7.10;;;20.90;33.00;;;;;;5010246;28;20499;-65
2022/05/11 05:33:59;;;;;;;83.07;8.75;;;20.80;33.20;;;;;;5009970;28;20164;-64
2022/05/11 05:36:28;;;;;;;85.18;9.18;;;20.90;33.10;;;;;;5042586;28;20077;-64
2022/05/11 05:38:54;;;;;;;84.82;8.30;;;20.80;33.10;;;;;;5011805;28;20100;-64
2022/05/11 05:41:21;;;;;;;108.13;8.85;;;20.70;33.30;;;;;;5013605;28;20586;-65
2022/05/11 05:43:47;;;;;;;73.65;8.02;;;20.70;33.30;;;;;;5016255;28;20093;-64
2022/05/11 05:46:19;;;;;;;72.38;7.85;;;20.60;33.40;;;;;;5010857;28;20077;-64
2022/05/11 05:48:45;;;;;;;71.18;9.10;;;20.50;33.40;;;;;;5012630;28;20093;-64
2022/05/11 05:51:15;;;;;;;86.93;8.50;;;20.40;33.20;;;;;;5012088;28;20443;-63
2022/05/11 05:53:42;;;;;;;87.35;9.32;;;20.40;32.80;;;;;;5014626;28;20551;-63
2022/05/11 05:56:16;;;;;;;74.15;8.40;;;20.40;32.60;;;;;;5012349;28;20131;-66
2022/05/11 05:58:47;;;;;;;59.75;6.78;;;20.30;32.00;;;;;;5011383;28;20073;-64
2022/05/11 06:01:16;;;;;;;55.20;6.53;;;20.30;31.50;;;;;;5012982;28;20601;-64
2022/05/11 06:03:44;;;;;;;51.55;5.70;;;20.30;31.20;;;;;;5013126;28;20077;-64
2022/05/11 06:06:11;;;;;;;36.58;5.70;;;20.30;31.20;;;;;;5019382;28;20073;-65
2022/05/11 06:08:38;;;;;;;44.95;5.78;;;20.30;31.10;;;;;;5009287;28;20089;-65
2022/05/11 06:11:06;;;;;;;42.95;4.82;;;20.20;30.90;;;;;;5010672;28;20127;-65
2022/05/11 06:13:33;;;;;;;39.92;5.05;;;20.30;30.70;;;;;;5014704;28;20065;-65
2022/05/11 06:15:59;;;;;;;35.10;5.05;;;20.30;30.70;;;;;;5015566;28;20081;-64
2022/05/11 06:18:27;;;;;;;37.53;3.22;;;20.10;31.70;;;;;;5045914;28;20159;-65
2022/05/11 06:20:54;;;;;;;23.50;3.38;;;20.00;32.20;;;;;;5020755;28;20088;-65
2022/05/11 06:23:21;;;;;;;21.15;2.90;;;20.00;32.70;;;;;;5021804;28;20073;-65
2022/05/11 06:25:51;;;;;;;21.13;2.60;;;19.80;33.00;;;;;;5016746;28;20073;-65
2022/05/11 06:28:19;;;;;;;11.75;2.33;;;19.80;32.90;;;;;;5019563;28;20085;-63
2022/05/11 06:30:47;;;;;;;12.07;1.70;;;19.70;32.80;;;;;;5015763;28;20069;-66
2022/05/11 06:33:14;;;;;;;12.38;1.90;;;19.70;32.70;;;;;;5012269;28;20516;-64
2022/05/11 06:35:41;;;;;;;11.48;1.90;;;19.60;32.80;;;;;;5013780;28;20543;-64
2022/05/11 06:38:09;;;;;;;14.25;1.88;;;19.60;32.80;;;;;;5015240;28;20078;-64
2022/05/11 06:40:35;;;;;;;13.48;1.75;;;19.40;32.80;;;;;;5017519;28;20431;-66
2022/05/11 06:43:03;;;;;;;8.15;1.30;;;19.40;32.60;;;;;;5023825;28;20073;-60
2022/05/11 06:45:31;;;;;;;15.38;1.70;;;19.40;32.40;;;;;;5018093;28;20443;-63
2022/05/11 06:47:57;;;;;;;11.90;2.20;;;19.30;32.10;;;;;;5016089;28;20428;-65
2022/05/11 06:50:26;;;;;;;12.27;1.83;;;19.20;32.00;;;;;;5011996;28;20130;-65
2022/05/11 06:52:57;;;;;;;16.55;1.85;;;19.20;31.80;;;;;;5013369;28;20105;-62
2022/05/11 07:00:53;;;;;;;12.68;2.15;;;19.20;31.30;;;;;;5015450;28;20156;-63
2022/05/11 07:03:20;;;;;;;11.98;1.90;;;19.10;31.10;;;;;;5032034;28;20123;-64
2022/05/11 07:05:47;;;;;;;12.35;1.90;;;19.20;31.10;;;;;;5008844;28;20558;-65
2022/05/11 07:08:14;;;;;;;41.00;2.90;;;19.20;31.20;;;;;;5016478;28;21087;-64
2022/05/11 07:10:42;;;;;;;8.55;1.88;;;19.10;31.20;;;;;;5042447;28;20077;-64
2022/05/11 07:13:10;;;;;;;16.02;1.52;;;19.10;31.40;;;;;;5011657;28;20075;-65
2022/05/11 07:15:37;;;;;;;24.90;1.95;;;19.10;31.50;;;;;;5044955;28;20084;-65
2022/05/11 07:18:03;;;;;;;19.13;2.10;;;19.00;31.50;;;;;;5015326;28;20092;-63
2022/05/11 07:20:39;;;;;;;12.55;1.77;;;19.00;31.60;;;;;;5014360;28;20539;-65
2022/05/11 07:23:07;;;;;;;11.48;1.73;;;19.00;31.80;;;;;;5011415;28;20469;-64
2022/05/11 07:25:35;;;;;;;10.85;1.48;;;18.90;32.00;;;;;;5012503;28;20077;-62
2022/05/11 07:28:02;;;;;;;15.88;1.73;;;19.00;32.20;;;;;;5013731;28;20447;-64
2022/05/11 07:30:32;;;;;;;14.93;1.67;;;18.90;32.40;;;;;;5013764;28;20160;-65
2022/05/11 07:33:00;;;;;;;11.98;1.70;;;19.00;32.60;;;;;;5013617;28;20076;-64
2022/05/11 07:35:28;;;;;;;8.23;1.88;;;18.90;32.90;;;;;;5011932;28;20120;-63
2022/05/11 07:37:55;;;;;;;13.55;2.40;;;18.90;33.10;;;;;;5014863;28;20451;-65
2022/05/11 07:40:23;;;;;;;21.05;2.10;;;18.80;33.50;;;;;;5013834;28;20073;-62
2022/05/11 07:42:50;;;;;;;7.90;1.63;;;18.70;34.30;;;;;;5014362;28;20713;-64
2022/05/11 07:45:18;;;;;;;14.75;1.90;;;18.60;34.80;;;;;;5014296;28;20092;-64
2022/05/11 07:47:45;;;;;;;17.33;2.10;;;18.50;35.20;;;;;;5014157;28;20116;-65
2022/05/11 07:50:14;;;;;;;17.25;1.80;;;18.40;35.30;;;;;;5014656;28;20085;-65
2022/05/11 07:52:45;;;;;;;17.95;2.05;;;18.40;35.00;;;;;;5013936;28;20097;-64
2022/05/11 07:55:12;;;;;;;12.60;2.05;;;18.30;35.20;;;;;;5012914;28;20077;-63
2022/05/11 08:00:23;;;;;;;12.75;1.90;;;18.30;35.00;;;;;;5013878;28;20080;-65
2022/05/11 08:02:50;;;;;;;6.00;1.52;;;18.30;35.00;;;;;;5014577;28;20169;-64
2022/05/11 08:05:18;;;;;;;12.38;1.60;;;18.40;35.00;;;;;;5010900;28;20074;-64
2022/05/11 08:07:53;;;;;;;7.72;1.17;;;18.40;35.00;;;;;;5009540;28;20189;-64
2022/05/11 08:10:34;;;;;;;7.03;1.40;;;18.40;35.10;;;;;;5013820;28;20073;-63
2022/05/11 08:13:05;;;;;;;10.65;1.75;;;18.30;35.40;;;;;;5014105;28;20103;-66
2022/05/11 08:15:33;;;;;;;9.50;1.48;;;18.30;35.20;;;;;;5014595;28;20069;-64
2022/05/11 08:18:00;;;;;;;6.78;1.20;;;18.30;35.10;;;;;;4996354;28;20143;-64
2022/05/11 08:20:30;;;;;;;18.23;2.08;;;18.30;35.30;;;;;;5012273;28;20077;-63
2022/05/11 08:22:58;;;;;;;6.93;1.55;;;18.30;35.70;;;;;;5020074;28;20080;-66
2022/05/11 08:25:27;;;;;;;10.00;1.50;;;18.20;36.00;;;;;;5014225;28;20077;-66
2022/05/11 08:27:55;;;;;;;5.85;1.52;;;18.20;36.20;;;;;;5013830;28;20604;-64
2022/05/11 08:33:27;;;;;;;6.53;1.70;;;18.10;36.60;;;;;;5019496;28;20526;-64
2022/05/11 08:35:58;;;;;;;12.75;1.65;;;18.00;36.80;;;;;;5009473;28;20462;-65
2022/05/11 08:38:28;;;;;;;10.18;1.50;;;17.90;37.40;;;;;;5013878;28;20072;-65
2022/05/11 08:41:00;;;;;;;6.45;1.65;;;17.80;37.40;;;;;;5012541;28;20164;-66
2022/05/11 08:43:31;;;;;;;10.90;1.45;;;17.90;37.10;;;;;;5014655;28;20073;-65
2022/05/11 08:46:22;;;;;;;7.03;1.75;;;17.90;36.60;;;;;;5010743;28;20177;-64
2022/05/11 08:48:51;;;;;;;16.83;1.83;;;18.00;36.10;;;;;;5015201;28;20121;-64
2022/05/11 08:52:04;;;;;;;9.77;1.75;;;17.90;35.70;;;;;;5013223;28;20078;-63
2022/05/11 08:54:33;;;;;;;10.77;1.63;;;18.00;35.30;;;;;;4964643;28;20192;-63
2022/05/11 08:57:02;;;;;;;9.60;1.70;;;18.00;35.10;;;;;;4974699;28;20137;-66
2022/05/11 08:59:32;;;;;;;11.90;1.80;;;18.00;35.00;;;;;;4938834;28;20181;-63
2022/05/11 09:02:13;;;;;;;14.57;1.90;;;18.00;35.10;;;;;;4972458;28;20097;-64
2022/05/11 09:04:53;;;;;;;17.55;1.73;;;17.90;35.30;;;;;;4966253;28;20137;-64
2022/05/11 09:07:20;;;;;;;16.25;2.13;;;17.90;35.50;;;;;;4963762;28;20434;-66
2022/05/11 09:09:47;;;;;;;11.57;1.80;;;17.90;35.70;;;;;;4954258;28;20101;-65
2022/05/11 09:12:14;;;;;;;13.70;1.70;;;17.90;36.00;;;;;;4970556;28;20070;-65
2022/05/11 09:14:50;;;;;;;10.63;1.70;;;18.00;35.90;;;;;;4972201;28;20142;-64
2022/05/11 09:17:26;;;;;;;16.52;2.25;;;17.90;35.70;;;;;;4969780;28;20193;-65
2022/05/11 09:20:13;;;;;;;16.33;1.90;;;17.90;35.50;;;;;;4955890;28;20089;-64
2022/05/11 09:22:43;;;;;;;11.70;1.60;;;17.90;35.40;;;;;;4960491;28;20086;-65
2022/05/11 09:25:20;;;;;;;13.30;1.77;;;17.90;35.40;;;;;;4959531;28;20077;-65
2022/05/11 09:27:48;;;;;;;12.20;1.98;;;17.90;35.40;;;;;;4975433;28;20129;-66
2022/05/11 09:30:24;;;;;;;10.75;2.03;;;17.80;35.40;;;;;;5040944;28;20096;-64
2022/05/11 09:33:11;;;;;;;12.90;1.98;;;17.80;35.70;;;;;;5012463;28;20068;-64
2022/05/11 09:35:39;;;;;;;9.52;1.48;;;17.80;36.60;;;;;;5010803;28;20077;-64
2022/05/11 09:38:10;;;;;;;7.75;1.38;;;17.60;37.70;;;;;;5012031;28;20081;-64
2022/05/11 09:41:05;;;;;;;8.55;1.60;;;17.60;38.10;;;;;;5013850;28;20124;-66
2022/05/11 09:43:39;;;;;;;9.23;1.45;;;17.60;38.10;;;;;;5014274;28;20486;-64
2022/05/11 09:46:27;;;;;;;12.80;2.10;;;17.60;38.10;;;;;;5010534;28;20077;-64
2022/05/11 09:49:06;;;;;;;7.50;1.40;;;17.50;38.00;;;;;;5027838;28;20098;-64
2022/05/11 09:51:50;;;;;;;9.40;1.60;;;17.40;38.70;;;;;;5015469;28;20089;-65
2022/05/11 09:54:19;;;;;;;16.48;1.98;;;17.40;38.90;;;;;;5016377;28;20116;-64
2022/05/11 09:56:56;;;;;;;15.60;1.70;;;17.20;39.60;;;;;;5017430;28;20081;-64
2022/05/11 09:59:24;;;;;;;;;;;17.30;38.90;;;;;;5016556;28;20097;-65
2022/05/11 10:02:11;;;;;;;8.95;2.03;;;17.40;38.30;;;;;;5015906;28;19961;-65
2022/05/11 10:04:47;;;;;;;9.65;1.70;;;17.40;38.30;;;;;;5017701;28;20076;-64
2022/05/11 10:07:19;;;;;;;8.43;1.75;;;17.40;37.90;;;;;;5014881;28;20089;-64
2022/05/11 10:09:52;;;;;;;10.52;1.92;;;17.40;38.20;;;;;;5007286;28;20163;-64
2022/05/11 10:12:24;;;;;;;11.13;1.98;;;17.40;38.70;;;;;;5013623;28;20069;-64
2022/05/11 10:23:38;;;;;;;10.13;1.70;;;17.10;40.20;;;;;;5016738;28;20088;-63
2022/05/11 10:26:19;;;;;;;11.43;2.05;;;16.80;41.60;;;;;;5017936;28;20077;-62
2022/05/11 10:29:01;;;;;;;11.48;1.98;;;16.60;42.20;;;;;;5015616;28;20077;-62
2022/05/11 10:31:41;;;;;;;8.93;1.58;;;16.60;41.80;;;;;;5015415;28;20065;-63
2022/05/11 10:34:48;;;;;;;10.60;1.67;;;16.50;41.70;;;;;;5010061;28;20093;-64
2022/05/11 10:37:29;;;;;;;4.53;1.50;;;16.50;41.40;;;;;;5014789;28;20082;-61
2022/05/11 10:40:11;;;;;;;7.93;1.40;;;16.40;41.20;;;;;;5014458;28;20384;-61
2022/05/11 10:42:47;;;;;;;10.32;1.55;;;16.40;41.00;;;;;;5012560;28;20081;-61
2022/05/11 10:45:26;;;;;;;11.52;1.80;;;16.50;40.80;;;;;;4997277;28;20082;-62
2022/05/11 10:48:50;;;;;;;12.32;1.98;;;16.50;40.70;;;;;;5012933;28;20176;-62
2022/05/11 10:51:38;;;;;;;5.03;1.65;;;16.60;40.70;;;;;;4952728;28;21542;-62
2022/05/11 10:54:10;;;;;;;10.93;1.90;;;16.50;41.30;;;;;;4953993;28;20121;-62
2022/05/11 10:56:39;;;;;;;9.18;1.88;;;16.50;41.50;;;;;;4954225;28;20103;-64
2022/05/11 10:59:24;;;;;;;4.80;1.60;;;16.50;41.20;;;;;;4969207;28;20162;-62
2022/05/11 11:02:11;;;;;;;6.10;1.40;;;16.40;40.10;;;;;;4953050;28;20090;-62
2022/05/11 11:05:00;;;;;;;5.95;1.40;;;16.40;39.10;;;;;;4953630;28;20177;-62
2022/05/11 11:07:52;;;;;;;9.27;1.52;;;16.40;38.90;;;;;;4969650;28;20586;-61
2022/05/11 11:10:29;;;;;;;9.30;1.65;;;16.40;38.80;;;;;;4968020;28;20133;-61
2022/05/11 11:13:04;;;;;;;13.40;1.63;;;16.30;38.60;;;;;;4952893;28;20071;-63
2022/05/11 11:15:34;;;;;;;13.43;1.48;;;16.30;38.50;;;;;;4968426;28;20575;-61
2022/05/11 11:18:04;;;;;;;15.45;2.92;;;16.30;37.90;;;;;;4937324;28;20572;-60
2022/05/11 11:20:36;;;;;;;12.30;1.80;;;16.30;37.90;;;;;;4952811;28;20434;-61
2022/05/11 11:23:09;;;;;;;10.10;1.80;;;16.40;37.20;;;;;;5012207;28;20073;-63
2022/05/11 11:25:53;;;;;;;10.02;1.77;;;16.40;36.70;;;;;;5013771;28;20455;-63
2022/05/11 11:28:23;;;;;;;12.55;1.75;;;16.40;36.20;;;;;;5013513;28;20193;-64
2022/05/11 11:30:59;;;;;;;10.32;2.40;;;16.40;36.00;;;;;;5015509;28;20096;-62
2022/05/11 11:33:34;;;;;;;12.15;2.08;;;16.30;35.90;;;;;;5015283;28;20621;-64
2022/05/11 11:36:04;;;;;;;13.48;2.42;;;16.30;36.00;;;;;;5006205;28;20087;-62
2022/05/11 11:38:46;;;;;;;12.38;2.00;;;16.30;35.80;;;;;;5015069;28;20070;-61
2022/05/11 11:41:22;;;;;;;9.38;1.67;;;16.20;35.30;;;;;;5025079;28;20080;-62
2022/05/11 11:43:51;;;;;;;9.38;1.70;;;16.20;34.20;;;;;;5017813;28;20069;-64
2022/05/11 11:46:44;;;;;;;18.08;2.15;;;16.30;33.20;;;;;;5014816;28;20634;-62
2022/05/11 11:49:21;;;;;;;18.40;1.63;;;16.20;32.10;;;;;;5011689;28;20093;-61
2022/05/11 11:52:00;;;;;;;12.48;1.85;;;16.20;31.70;;;;;;5012930;28;20073;-62
2022/05/11 11:54:32;;;;;;;8.70;1.67;;;16.20;31.60;;;;;;5015882;28;20447;-63
2022/05/11 11:57:00;;;;;;;9.23;1.85;;;16.20;31.50;;;;;;5013920;28;20078;-62
2022/05/11 11:59:28;;;;;;;16.08;2.10;;;16.10;31.30;;;;;;5015606;28;20440;-63
2022/05/11 12:02:18;;;;;;;10.77;1.92;;;16.20;31.30;;;;;;5014809;28;20074;-61
2022/05/11 12:05:16;;;;;;;11.30;1.90;;;16.10;31.10;;;;;;5013117;28;20535;-62
2022/05/11 12:16:54;;;;;;;11.00;1.80;;;16.10;29.60;;;;;;5016063;28;20080;-61
2022/05/11 12:19:23;;;;;;;9.00;1.42;;;16.10;29.00;;;;;;5013286;28;20535;-62
2022/05/11 12:22:13;;;;;;;13.25;1.40;;;16.10;28.40;;;;;;5010270;28;20541;-62
2022/05/11 12:24:47;;;;;;;8.73;1.30;;;16.10;27.40;;;;;;5010746;28;20073;-61
2022/05/11 12:27:28;;;;;;;3.42;1.30;;;16.10;26.40;;;;;;4997283;28;20179;-62
2022/05/11 12:30:06;;;;;;;7.95;1.55;;;16.10;25.90;;;;;;5035692;28;20105;-60
2022/05/11 12:32:38;;;;;;;9.35;1.48;;;16.10;25.60;;;;;;5012256;28;20074;-63
2022/05/11 12:35:25;;;;;;;9.82;1.60;;;16.10;24.90;;;;;;5013682;28;20072;-61
2022/05/11 12:38:04;;;;;;;7.30;1.35;;;16.00;24.20;;;;;;5013978;28;20085;-61
2022/05/11 12:40:40;;;;;;;13.05;1.63;;;16.10;23.40;;;;;;5010879;28;20077;-63
2022/05/11 12:43:32;;;;;;;7.38;1.73;;;16.10;22.20;;;;;;5014949;28;20073;-61
2022/05/11 12:46:05;;;;;;;4.22;1.30;;;16.20;21.40;;;;;;5013644;28;20097;-63
2022/05/11 12:48:38;;;;;;;7.18;1.70;;;16.20;21.20;;;;;;5042069;28;20094;-62
2022/05/11 12:51:07;;;;;;;3.80;1.23;;;16.10;22.80;;;;;;5013458;28;20065;-62
2022/05/11 12:53:51;;;;;;;8.07;1.30;;;16.00;25.30;;;;;;5025567;28;20110;-62
2022/05/11 12:56:23;;;;;;;8.18;1.73;;;16.00;25.40;;;;;;5013825;28;20070;-64
2022/05/11 12:58:52;;;;;;;6.07;1.75;;;15.90;25.60;;;;;;5012591;28;20085;-62
2022/05/11 13:01:21;;;;;;;12.55;1.60;;;15.80;25.10;;;;;;5013221;28;20071;-63
2022/05/11 13:03:50;;;;;;;8.43;1.48;;;15.80;25.10;;;;;;5013809;28;20125;-64
2022/05/11 13:06:34;;;;;;;6.72;1.48;;;15.80;25.00;;;;;;5013504;28;20096;-61
2022/05/11 13:09:34;;;;;;;13.82;1.50;;;15.70;24.90;;;;;;5010814;28;20093;-62
2022/05/11 13:12:02;;;;;;;4.43;1.50;;;15.60;24.90;;;;;;5012864;28;20086;-61
2022/05/11 13:14:39;;;;;;;9.02;1.35;;;15.60;24.90;;;;;;5012673;28;20455;-62
2022/05/11 13:17:08;;;;;;;4.55;1.30;;;15.60;24.70;;;;;;5019383;28;20443;-62
2022/05/11 13:19:42;;;;;;;9.70;1.50;;;15.60;23.80;;;;;;5015889;28;20074;-61
2022/05/11 13:22:19;;;;;;;6.38;1.23;;;15.60;23.50;;;;;;5015598;28;20515;-64
2022/05/11 13:24:49;;;;;;;12.60;1.42;;;15.70;22.70;;;;;;5019404;28;20073;-64
2022/05/11 13:27:39;;;;;;;9.05;1.45;;;15.70;22.40;;;;;;5019044;28;20091;-62
2022/05/11 13:30:17;;;;;;;7.95;1.40;;;15.70;22.30;;;;;;5018096;28;20559;-61
2022/05/11 13:32:51;;;;;;;16.17;1.73;;;15.80;22.30;;;;;;5013834;28;20088;-61
2022/05/11 13:35:38;;;;;;;5.15;1.40;;;15.90;21.60;;;;;;5017586;28;20076;-63
2022/05/11 13:38:12;;;;;;;9.80;1.55;;;15.90;20.80;;;;;;5017955;28;20561;-63